Time;durP1;ratioP1;P1;durP2;ratioP2;P2;SDS_P1;SDS_P2;PMS_P1;PMS_P2;Temp;Humidity;BMP_temperature;BMP_pressure;BME280_temperature;BME280_humidity;BME280_pressure;Samples;Min_cycle;Max_cycle;Signal;HPM_P1;HPM_P2
2023/02/01 00:02:27;;;;;;;13.87;7.23;;;6.10;99.90;;;;;;4995428;28;20501;-80
2023/02/01 00:04:54;;;;;;;19.67;8.80;;;6.10;99.90;;;;;;5013581;28;20559;-79
2023/02/01 00:07:21;;;;;;;14.83;6.93;;;6.20;99.90;;;;;;5014923;28;20436;-79
2023/02/01 00:09:47;;;;;;;16.20;8.57;;;6.20;99.90;;;;;;5013076;28;20483;-80
2023/02/01 00:12:14;;;;;;;11.90;5.77;;;6.30;99.90;;;;;;5015717;28;20540;-80
2023/02/01 00:14:41;;;;;;;15.27;6.33;;;6.30;99.90;;;;;;5010581;28;20545;-79
2023/02/01 00:17:08;;;;;;;12.73;5.47;;;6.30;99.90;;;;;;5003069;28;20483;-80
2023/02/01 00:19:36;;;;;;;15.83;6.20;;;6.30;99.90;;;;;;5011998;28;20556;-81
2023/02/01 00:22:03;;;;;;;12.07;5.80;;;6.40;99.90;;;;;;5015315;28;20483;-80
2023/02/01 00:24:30;;;;;;;19.30;5.90;;;6.30;95.40;;;;;;5010208;28;20473;-81
2023/02/01 00:26:57;;;;;;;11.30;4.77;;;6.20;65.80;;;;;;5014394;28;20479;-80
2023/02/01 00:29:23;;;;;;;9.10;5.43;;;6.30;42.80;;;;;;5011544;28;20476;-80
2023/02/01 00:31:51;;;;;;;12.47;4.97;;;6.20;28.90;;;;;;5014086;28;21116;-80
2023/02/01 00:34:19;;;;;;;13.43;4.57;;;6.30;20.70;;;;;;5014430;28;20472;-80
2023/02/01 00:36:48;;;;;;;13.53;5.07;;;6.30;2.40;;;;;;5015423;28;20539;-80
2023/02/01 00:39:15;;;;;;;10.27;4.30;;;6.30;2.90;;;;;;5014169;28;20470;-81
2023/02/01 00:41:41;;;;;;;15.10;4.93;;;6.30;1.00;;;;;;5014844;28;21066;-79
2023/02/01 00:44:08;;;;;;;13.10;4.40;;;6.30;1.00;;;;;;5014530;28;20535;-80
2023/02/01 00:46:35;;;;;;;19.03;4.57;;;6.30;1.00;;;;;;5015663;28;20464;-82
2023/02/01 00:49:03;;;;;;;11.60;4.37;;;6.30;1.00;;;;;;5016238;28;20532;-84
2023/02/01 00:51:30;;;;;;;15.50;4.30;;;6.30;1.00;;;;;;5018367;28;20560;-80
2023/02/01 00:53:59;;;;;;;10.20;3.93;;;6.30;1.00;;;;;;5016589;28;20479;-80
2023/02/01 00:56:27;;;;;;;14.60;3.87;;;6.30;1.00;;;;;;5015327;28;20470;-82
2023/02/01 00:58:54;;;;;;;12.47;3.83;;;6.30;1.00;;;;;;5014702;28;20484;-80
2023/02/01 01:01:22;;;;;;;17.00;4.17;;;6.40;1.00;;;;;;5015726;28;20560;-81
2023/02/01 01:03:51;;;;;;;11.80;3.63;;;6.30;1.00;;;;;;5013974;28;20840;-81
2023/02/01 01:06:20;;;;;;;12.67;4.43;;;6.30;1.00;;;;;;5018105;28;20484;-81
2023/02/01 01:08:48;;;;;;;10.90;3.53;;;6.30;1.00;;;;;;5017865;28;20852;-81
2023/02/01 01:11:18;;;;;;;9.53;4.27;;;6.30;1.00;;;;;;5017828;28;20552;-80
2023/02/01 01:13:48;;;;;;;6.33;3.80;;;6.30;1.00;;;;;;5019397;28;20496;-80
2023/02/01 01:16:16;;;;;;;7.43;3.50;;;6.40;1.00;;;;;;5001760;28;20480;-80
2023/02/01 01:18:43;;;;;;;10.13;3.27;;;6.40;1.00;;;;;;5017025;28;20464;-82
2023/02/01 01:21:13;;;;;;;12.87;4.00;;;6.40;1.00;;;;;;5005949;28;20493;-81
2023/02/01 01:23:40;;;;;;;11.13;3.90;;;6.40;1.00;;;;;;5018075;28;20533;-81
2023/02/01 01:26:08;;;;;;;11.80;4.60;;;6.40;1.00;;;;;;5024695;28;20528;-82
2023/02/01 01:28:37;;;;;;;16.97;4.17;;;6.40;1.00;;;;;;5022850;28;21034;-82
2023/02/01 01:31:04;;;;;;;13.03;3.93;;;6.40;1.00;;;;;;5022389;28;20476;-81
2023/02/01 01:33:31;;;;;;;18.43;5.13;;;6.40;1.00;;;;;;5019614;28;20524;-82
2023/02/01 01:35:58;;;;;;;12.37;4.30;;;6.40;1.00;;;;;;5018663;28;20460;-80
2023/02/01 01:38:24;;;;;;;13.67;4.23;;;6.40;1.00;;;;;;5015387;28;20572;-82
2023/02/01 01:40:51;;;;;;;11.17;4.57;;;6.40;1.00;;;;;;5001518;28;20477;-82
2023/02/01 01:43:22;;;;;;;11.70;3.60;;;6.30;1.00;;;;;;5014903;28;20544;-82
2023/02/01 01:45:50;;;;;;;13.27;3.73;;;6.30;1.00;;;;;;5012845;28;20441;-81
2023/02/01 01:48:24;;;;;;;14.53;4.17;;;6.30;1.00;;;;;;5019089;28;20479;-82
2023/02/01 01:50:55;;;;;;;15.10;4.50;;;6.30;1.00;;;;;;5009998;28;20497;-81
2023/02/01 01:53:27;;;;;;;12.23;4.73;;;6.40;1.00;;;;;;5008595;28;20469;-82
2023/02/01 01:55:55;;;;;;;11.10;3.80;;;6.30;1.00;;;;;;5016415;28;20544;-83
2023/02/01 01:58:25;;;;;;;16.27;4.37;;;6.30;1.00;;;;;;5008620;28;20453;-80
2023/02/01 02:00:55;;;;;;;11.20;4.43;;;6.30;1.00;;;;;;5022182;28;20492;-81
2023/02/01 02:03:25;;;;;;;19.40;4.33;;;6.30;1.00;;;;;;5023485;28;20488;-81
2023/02/01 02:05:54;;;;;;;13.33;4.00;;;6.30;1.00;;;;;;5022416;28;20783;-80
2023/02/01 02:08:22;;;;;;;10.40;5.10;;;6.30;1.00;;;;;;5019002;28;20488;-80
2023/02/01 02:11:03;;;;;;;8.67;3.70;;;6.30;1.00;;;;;;5013263;28;20902;-80
2023/02/01 02:13:33;;;;;;;11.73;3.80;;;6.30;1.00;;;;;;5005941;28;20478;-82
2023/02/01 02:16:15;;;;;;;15.20;4.70;;;6.30;1.00;;;;;;5020839;28;20456;-80
2023/02/01 02:18:50;;;;;;;10.77;4.30;;;6.30;1.00;;;;;;5021324;28;20477;-80
2023/02/01 02:21:30;;;;;;;7.93;4.30;;;6.20;1.00;;;;;;5024054;28;20591;-82
2023/02/01 02:24:27;;;;;;;10.60;4.43;;;6.20;1.00;;;;;;5023514;28;20465;-82
2023/02/01 02:27:22;;;;;;;20.20;5.10;;;6.20;1.00;;;;;;5005074;28;20450;-81
2023/02/01 02:30:22;;;;;;;14.47;3.47;;;6.20;1.00;;;;;;5018981;28;20452;-81
2023/02/01 02:33:06;;;;;;;11.57;4.27;;;6.20;1.00;;;;;;5016317;28;20489;-80
2023/02/01 02:35:46;;;;;;;10.30;4.30;;;6.20;1.00;;;;;;5016966;28;20471;-80
2023/02/01 02:38:20;;;;;;;8.67;3.43;;;6.20;1.00;;;;;;5000070;28;20966;-81
2023/02/01 02:40:52;;;;;;;11.80;3.93;;;6.20;1.00;;;;;;5016814;28;20449;-81
2023/02/01 02:49:03;;;;;;;9.47;3.50;;;6.20;1.00;;;;;;5011717;28;20441;-82
2023/02/01 02:54:48;;;;;;;14.60;3.60;;;6.20;1.00;;;;;;4957788;29;20527;-82
2023/02/01 03:05:39;;;;;;;12.23;3.70;;;6.10;1.00;;;;;;4973909;28;20545;-81
2023/02/01 03:08:12;;;;;;;11.13;3.20;;;6.10;1.00;;;;;;5009045;28;20459;-81
2023/02/01 03:10:48;;;;;;;19.40;4.70;;;6.10;1.00;;;;;;5021647;28;20498;-82
2023/02/01 03:13:19;;;;;;;12.67;3.57;;;6.10;1.00;;;;;;5022746;28;20928;-81
2023/02/01 03:15:55;;;;;;;10.57;3.70;;;6.00;1.00;;;;;;5021311;28;20550;-83
2023/02/01 03:18:30;;;;;;;10.40;3.20;;;5.90;1.00;;;;;;5022481;28;20436;-81
2023/02/01 03:21:00;;;;;;;13.27;4.70;;;5.90;1.00;;;;;;5019574;28;20521;-81
2023/02/01 03:23:32;;;;;;;13.87;3.37;;;5.90;1.00;;;;;;5021227;28;20484;-81
2023/02/01 03:26:02;;;;;;;10.50;2.87;;;5.90;1.00;;;;;;5017329;28;20499;-82
2023/02/01 03:28:32;;;;;;;22.70;3.73;;;5.90;1.00;;;;;;5008965;28;20469;-82
2023/02/01 03:30:59;;;;;;;17.63;3.87;;;6.00;1.00;;;;;;5017535;28;20496;-82
2023/02/01 03:33:29;;;;;;;9.33;3.13;;;6.00;1.00;;;;;;5019986;28;20490;-83
2023/02/01 03:36:04;;;;;;;12.03;2.70;;;6.00;1.00;;;;;;5018396;28;20497;-83
2023/02/01 03:38:37;;;;;;;9.20;3.50;;;6.00;1.00;;;;;;5006713;28;20499;-82
2023/02/01 03:41:12;;;;;;;7.37;3.47;;;6.00;1.00;;;;;;5007241;28;20476;-82
2023/02/01 03:43:50;;;;;;;8.70;4.17;;;6.00;1.00;;;;;;4998750;28;20465;-80
2023/02/01 03:46:21;;;;;;;13.67;3.30;;;6.00;1.00;;;;;;5017491;28;20439;-82
2023/02/01 03:48:50;;;;;;;21.03;3.80;;;6.00;1.00;;;;;;5007802;28;20475;-81
2023/02/01 03:51:20;;;;;;;12.00;3.40;;;6.00;1.00;;;;;;5009881;28;20542;-78
2023/02/01 03:53:49;;;;;;;11.80;3.03;;;6.00;1.00;;;;;;5015276;28;20453;-80
2023/02/01 03:56:18;;;;;;;8.60;2.63;;;6.00;1.00;;;;;;5016502;28;20465;-80
2023/02/01 03:58:58;;;;;;;7.10;3.20;;;6.10;1.00;;;;;;5016291;28;21031;-80
2023/02/01 04:01:27;;;;;;;11.40;3.43;;;6.00;1.00;;;;;;5017033;28;20522;-80
2023/02/01 04:03:54;;;;;;;11.33;3.47;;;6.00;1.00;;;;;;5016508;28;20851;-81
2023/02/01 04:06:21;;;;;;;7.70;3.10;;;6.00;1.00;;;;;;5017261;28;20463;-81
2023/02/01 04:08:49;;;;;;;10.73;2.67;;;6.00;1.00;;;;;;5011088;28;20500;-81
2023/02/01 04:11:16;;;;;;;9.77;2.93;;;6.00;1.00;;;;;;5007641;28;20905;-81
2023/02/01 04:13:43;;;;;;;16.80;3.60;;;6.00;1.00;;;;;;5006938;28;20467;-79
2023/02/01 04:16:10;;;;;;;16.13;3.83;;;6.00;1.00;;;;;;5015757;28;20454;-80
2023/02/01 04:18:37;;;;;;;15.37;4.10;;;6.10;1.00;;;;;;4999529;28;20565;-80
2023/02/01 04:21:04;;;;;;;15.47;4.00;;;6.10;1.00;;;;;;5013818;28;20471;-80
2023/02/01 04:23:31;;;;;;;16.07;4.00;;;6.10;1.00;;;;;;5014767;28;20595;-80
2023/02/01 04:26:02;;;;;;;12.00;3.40;;;6.10;1.00;;;;;;5015583;28;20481;-82
2023/02/01 04:28:29;;;;;;;14.73;4.10;;;6.10;1.00;;;;;;5014878;28;20985;-80
2023/02/01 04:33:32;;;;;;;17.30;4.50;;;6.20;1.00;;;;;;5027084;28;20890;-80
2023/02/01 04:35:59;;;;;;;11.13;2.93;;;6.10;1.00;;;;;;5029648;28;20527;-79
2023/02/01 04:38:26;;;;;;;9.70;2.80;;;6.20;1.00;;;;;;5035169;28;20469;-80
2023/02/01 04:40:53;;;;;;;17.90;3.50;;;6.20;1.00;;;;;;5034682;28;20520;-79
2023/02/01 04:43:21;;;;;;;11.70;3.30;;;6.20;1.00;;;;;;5035397;28;20861;-79
2023/02/01 04:45:49;;;;;;;19.47;3.87;;;6.30;1.00;;;;;;5032684;28;20463;-81
2023/02/01 04:48:16;;;;;;;10.00;3.93;;;6.20;1.00;;;;;;5035034;28;20449;-80
2023/02/01 04:50:47;;;;;;;17.33;5.07;;;6.20;1.00;;;;;;5033709;28;20474;-82
2023/02/01 04:53:14;;;;;;;16.43;4.13;;;6.20;1.00;;;;;;5035580;28;20491;-83
2023/02/01 04:55:40;;;;;;;9.13;3.43;;;6.20;1.00;;;;;;5019002;28;20473;-80
2023/02/01 04:58:07;;;;;;;10.00;3.13;;;6.20;1.00;;;;;;5033906;28;20464;-80
2023/02/01 05:00:35;;;;;;;17.87;4.00;;;6.20;1.00;;;;;;5033753;28;20447;-80
2023/02/01 05:03:02;;;;;;;14.43;3.50;;;6.20;1.00;;;;;;5034232;28;21009;-80
2023/02/01 05:05:29;;;;;;;11.07;3.37;;;6.30;1.00;;;;;;5027187;28;20553;-78
2023/02/01 05:07:56;;;;;;;19.07;4.40;;;6.30;1.00;;;;;;5030135;28;20473;-78
2023/02/01 05:10:23;;;;;;;14.30;3.60;;;6.30;1.00;;;;;;5028901;28;20466;-77
2023/02/01 05:15:35;;;;;;;7.90;3.00;;;6.20;1.00;;;;;;5035538;28;20535;-78
2023/02/01 05:18:02;;;;;;;9.17;3.50;;;6.20;1.00;;;;;;5025718;28;20451;-78
2023/02/01 05:20:29;;;;;;;9.67;3.30;;;6.20;1.00;;;;;;5033863;28;20456;-76
2023/02/01 05:22:56;;;;;;;17.30;4.67;;;6.20;1.00;;;;;;5032131;28;20495;-78
2023/02/01 05:25:22;;;;;;;12.60;3.90;;;6.20;1.00;;;;;;5035875;28;20471;-79
2023/02/01 05:27:49;;;;;;;16.53;3.80;;;6.10;1.00;;;;;;5026655;28;20446;-78
2023/02/01 05:30:16;;;;;;;15.40;5.53;;;6.20;1.00;;;;;;5032876;28;20490;-78
2023/02/01 05:32:44;;;;;;;15.53;4.03;;;6.20;1.00;;;;;;5026096;28;20473;-78
2023/02/01 05:35:11;;;;;;;12.30;3.40;;;6.20;1.00;;;;;;5036554;28;20472;-79
2023/02/01 05:37:38;;;;;;;11.57;3.57;;;6.20;1.00;;;;;;5025723;28;20476;-79
2023/02/01 05:40:06;;;;;;;13.50;4.00;;;6.20;1.00;;;;;;5031200;28;20455;-79
2023/02/01 05:42:33;;;;;;;10.27;3.53;;;6.20;1.00;;;;;;5029395;28;20492;-78
2023/02/01 05:44:59;;;;;;;14.33;3.23;;;6.10;1.00;;;;;;5021390;28;20452;-78
2023/02/01 05:47:26;;;;;;;9.90;2.80;;;6.10;1.00;;;;;;5027160;28;20896;-84
2023/02/01 05:49:54;;;;;;;16.13;5.10;;;6.10;1.00;;;;;;5041556;28;20565;-79
2023/02/01 05:52:21;;;;;;;11.50;3.50;;;6.00;1.00;;;;;;5033370;28;20458;-80
2023/02/01 05:54:49;;;;;;;14.50;2.83;;;5.90;1.00;;;;;;5039386;28;20471;-80
2023/02/01 05:57:16;;;;;;;11.93;3.00;;;5.80;1.00;;;;;;5041436;28;20567;-81
2023/02/01 05:59:44;;;;;;;16.37;5.07;;;5.70;1.00;;;;;;5032058;28;20476;-81
2023/02/01 06:02:11;;;;;;;13.40;2.80;;;5.60;1.00;;;;;;5033105;28;20490;-82
2023/02/01 06:04:38;;;;;;;22.33;4.10;;;5.50;1.00;;;;;;5031786;28;20475;-78
2023/02/01 06:07:08;;;;;;;17.20;3.60;;;5.50;3.90;;;;;;5036125;28;20470;-81
2023/02/01 06:09:36;;;;;;;16.43;4.00;;;5.60;1.40;;;;;;5038670;28;20806;-81
2023/02/01 06:12:03;;;;;;;10.93;3.43;;;5.60;14.00;;;;;;5035987;28;20700;-81
2023/02/01 06:14:30;;;;;;;13.30;3.10;;;5.70;3.30;;;;;;5041048;28;20469;-80
2023/02/01 06:16:57;;;;;;;11.33;4.03;;;5.80;1.00;;;;;;5040421;28;20462;-79
2023/02/01 06:19:24;;;;;;;12.43;4.43;;;5.90;1.00;;;;;;5044420;28;20495;-79
2023/02/01 06:21:51;;;;;;;13.90;3.13;;;5.90;1.00;;;;;;5019590;28;20488;-80
2023/02/01 06:24:19;;;;;;;11.93;3.53;;;6.00;1.00;;;;;;5019320;28;20567;-79
2023/02/01 06:26:46;;;;;;;13.90;3.27;;;6.00;1.00;;;;;;5035334;28;20449;-79
2023/02/01 06:29:13;;;;;;;20.63;3.80;;;6.10;1.00;;;;;;5021051;28;20454;-80
2023/02/01 06:31:42;;;;;;;15.10;3.87;;;6.10;1.00;;;;;;5033585;28;20484;-79
2023/02/01 06:34:09;;;;;;;11.23;4.20;;;6.10;1.00;;;;;;5036103;28;20467;-80
2023/02/01 06:36:35;;;;;;;7.40;2.90;;;6.10;1.00;;;;;;5035248;28;20470;-83
2023/02/01 06:39:02;;;;;;;11.67;3.30;;;6.20;1.00;;;;;;5035978;28;20446;-78
2023/02/01 06:41:31;;;;;;;16.23;4.57;;;6.20;1.00;;;;;;5035402;28;20486;-81
2023/02/01 06:43:57;;;;;;;13.57;3.60;;;6.20;1.00;;;;;;5030686;28;20587;-81
2023/02/01 06:46:24;;;;;;;8.57;2.63;;;6.20;1.00;;;;;;5026941;28;20477;-81
2023/02/01 06:48:51;;;;;;;9.23;4.03;;;6.20;1.00;;;;;;5029201;28;20557;-81
2023/02/01 06:51:23;;;;;;;18.13;4.53;;;6.20;1.00;;;;;;5030258;28;20460;-81
2023/02/01 06:53:50;;;;;;;16.73;3.63;;;6.20;1.00;;;;;;5028037;28;20474;-81
2023/02/01 06:56:17;;;;;;;26.33;4.07;;;6.30;1.00;;;;;;5033464;28;20546;-80
2023/02/01 06:58:45;;;;;;;27.70;4.27;;;6.30;1.00;;;;;;5034207;28;20924;-82
2023/02/01 07:01:13;;;;;;;14.00;4.30;;;6.30;1.00;;;;;;5030771;28;20467;-79
2023/02/01 07:03:40;;;;;;;23.10;4.10;;;6.30;1.00;;;;;;5030286;28;20476;-82
2023/02/01 07:06:08;;;;;;;16.63;5.07;;;6.30;1.00;;;;;;5027548;28;20861;-82
2023/02/01 07:08:36;;;;;;;16.13;4.00;;;6.30;1.00;;;;;;5029430;28;20464;-81
2023/02/01 07:11:04;;;;;;;18.17;4.37;;;6.30;1.00;;;;;;5029807;28;20466;-82
2023/02/01 07:13:31;;;;;;;11.63;3.20;;;6.30;1.00;;;;;;5033789;28;20454;-83
2023/02/01 07:16:03;;;;;;;16.47;3.47;;;6.30;1.00;;;;;;5035531;28;20446;-84
2023/02/01 07:18:31;;;;;;;13.37;3.87;;;6.30;1.00;;;;;;5037039;28;20447;-81
2023/02/01 07:20:58;;;;;;;9.53;3.20;;;6.40;1.00;;;;;;5036407;28;20447;-82
2023/02/01 07:23:25;;;;;;;13.67;4.00;;;6.40;1.00;;;;;;5037327;28;20485;-82
2023/02/01 07:25:58;;;;;;;20.80;4.80;;;6.40;1.00;;;;;;5034157;28;20974;-81
2023/02/01 07:28:26;;;;;;;14.90;4.20;;;6.40;1.00;;;;;;5035791;28;20452;-82
2023/02/01 07:30:53;;;;;;;12.10;4.00;;;6.40;1.00;;;;;;5035539;28;20461;-81
2023/02/01 07:33:23;;;;;;;11.73;3.20;;;6.40;1.00;;;;;;5036519;28;20483;-81
2023/02/01 07:35:51;;;;;;;12.03;3.03;;;6.40;1.00;;;;;;5035443;28;20462;-81
2023/02/01 07:38:19;;;;;;;13.33;3.07;;;6.50;1.00;;;;;;5034717;28;20466;-82
2023/02/01 07:40:46;;;;;;;14.93;4.57;;;6.50;1.00;;;;;;5032688;28;20954;-81
2023/02/01 07:43:12;;;;;;;14.57;4.20;;;6.50;1.00;;;;;;5029951;28;20493;-80
2023/02/01 07:45:40;;;;;;;16.80;3.60;;;6.50;1.00;;;;;;5030494;28;20470;-80
2023/02/01 07:48:07;;;;;;;14.00;4.30;;;6.50;1.00;;;;;;5033056;28;20471;-80
2023/02/01 07:50:35;;;;;;;11.37;4.10;;;6.50;1.00;;;;;;5037459;28;20843;-79
2023/02/01 07:53:02;;;;;;;17.83;4.40;;;6.60;1.00;;;;;;5031316;28;20550;-81
2023/02/01 07:55:29;;;;;;;17.40;5.20;;;6.50;1.00;;;;;;5033899;28;20543;-83
2023/02/01 07:57:58;;;;;;;15.00;4.70;;;6.60;1.00;;;;;;5035534;28;20465;-84
2023/02/01 08:03:10;;;;;;;18.03;3.80;;;6.50;1.00;;;;;;5033531;28;20523;-81
2023/02/01 08:05:39;;;;;;;11.33;3.40;;;6.50;1.00;;;;;;5032515;28;20472;-80
2023/02/01 08:08:06;;;;;;;22.40;5.10;;;6.50;1.00;;;;;;5033215;28;20455;-82
2023/02/01 08:10:34;;;;;;;20.60;5.20;;;6.50;1.00;;;;;;5035042;28;20471;-82
2023/02/01 08:13:02;;;;;;;15.77;3.90;;;6.60;1.00;;;;;;5027977;28;20461;-82
2023/02/01 08:15:31;;;;;;;14.13;4.80;;;6.60;1.00;;;;;;5035117;28;20448;-81
2023/02/01 08:17:58;;;;;;;14.30;4.23;;;6.60;1.00;;;;;;5036653;28;20970;-83
2023/02/01 08:20:25;;;;;;;10.00;3.20;;;6.60;1.00;;;;;;5035419;28;20459;-83
2023/02/01 08:22:53;;;;;;;17.27;4.33;;;6.60;1.00;;;;;;5035035;28;20475;-81
2023/02/01 08:25:20;;;;;;;15.03;3.97;;;6.50;1.00;;;;;;5036634;28;20455;-83
2023/02/01 08:27:47;;;;;;;17.13;5.03;;;6.60;1.00;;;;;;5038705;28;20540;-83
2023/02/01 08:30:14;;;;;;;18.67;4.30;;;6.70;1.00;;;;;;5036584;28;20911;-83
2023/02/01 08:32:41;;;;;;;15.20;4.53;;;6.70;1.00;;;;;;5026549;28;20499;-82
2023/02/01 08:35:09;;;;;;;26.70;4.63;;;6.70;1.00;;;;;;5028520;28;20475;-82
2023/02/01 08:37:37;;;;;;;23.33;5.10;;;6.70;1.00;;;;;;5033297;28;20891;-85
2023/02/01 08:40:06;;;;;;;22.83;4.80;;;6.70;1.00;;;;;;5033728;28;20482;-82
2023/02/01 08:42:51;;;;;;;15.70;5.97;;;6.70;1.00;;;;;;5031890;28;20492;-81
2023/02/01 08:45:19;;;;;;;17.73;6.20;;;6.70;1.00;;;;;;5029798;28;20472;-79
2023/02/01 08:47:46;;;;;;;15.43;4.80;;;6.80;1.00;;;;;;5034873;28;20494;-79
2023/02/01 08:50:14;;;;;;;20.30;5.00;;;6.90;1.00;;;;;;5030756;28;20495;-80
2023/02/01 08:52:41;;;;;;;10.57;4.10;;;6.90;1.00;;;;;;5032825;28;20590;-78
2023/02/01 08:55:10;;;;;;;20.43;4.20;;;6.90;1.00;;;;;;5031663;28;20494;-79
2023/02/01 08:57:37;;;;;;;12.40;5.03;;;7.00;1.00;;;;;;5035576;28;20448;-80
2023/02/01 09:00:05;;;;;;;9.93;4.30;;;7.10;1.00;;;;;;5031192;28;20554;-80
2023/02/01 09:02:32;;;;;;;16.60;4.37;;;7.20;1.00;;;;;;5027749;28;20495;-80
2023/02/01 09:04:59;;;;;;;22.60;4.30;;;7.20;1.00;;;;;;5029836;28;20496;-79
2023/02/01 09:07:26;;;;;;;14.93;5.17;;;7.10;1.00;;;;;;5034173;28;20460;-80
2023/02/01 09:09:56;;;;;;;14.90;4.83;;;7.00;1.00;;;;;;5037995;28;20452;-79
2023/02/01 09:12:24;;;;;;;27.53;6.60;;;6.90;1.00;;;;;;5035955;28;21319;-80
2023/02/01 09:14:51;;;;;;;23.60;5.77;;;6.90;1.00;;;;;;5037137;28;20558;-80
2023/02/01 09:17:18;;;;;;;12.07;4.47;;;6.90;1.00;;;;;;5040339;28;20454;-78
2023/02/01 09:19:44;;;;;;;16.63;5.60;;;6.90;1.00;;;;;;5040494;28;20594;-82
2023/02/01 09:22:11;;;;;;;15.93;5.73;;;7.00;1.00;;;;;;5035079;28;20505;-81
2023/02/01 09:24:38;;;;;;;12.00;4.80;;;7.00;1.00;;;;;;5037731;28;20484;-81
2023/02/01 09:27:05;;;;;;;29.20;5.60;;;7.10;1.00;;;;;;5035214;28;20486;-83
2023/02/01 09:29:33;;;;;;;19.17;5.53;;;7.30;1.00;;;;;;5022695;28;20517;-82
2023/02/01 09:32:00;;;;;;;13.03;5.10;;;7.20;1.00;;;;;;5040009;28;20514;-83
2023/02/01 09:34:27;;;;;;;13.80;5.17;;;7.30;1.00;;;;;;5035408;28;20470;-83
2023/02/01 09:36:54;;;;;;;17.33;5.57;;;7.20;1.00;;;;;;5041335;28;20554;-82
2023/02/01 09:39:21;;;;;;;11.17;4.37;;;7.20;1.00;;;;;;5033452;28;20469;-82
2023/02/01 09:41:58;;;;;;;10.67;4.20;;;7.10;1.00;;;;;;5039276;28;20966;-84
2023/02/01 09:44:49;;;;;;;14.50;4.63;;;7.10;1.00;;;;;;5042058;28;20580;-81
2023/02/01 09:47:20;;;;;;;15.97;4.60;;;7.10;1.00;;;;;;5021555;28;20473;-84
2023/02/01 09:49:53;;;;;;;21.57;4.60;;;7.20;1.00;;;;;;5037843;28;20452;-82
2023/02/01 09:52:28;;;;;;;13.57;4.80;;;7.20;1.00;;;;;;5032798;28;20483;-82
2023/02/01 09:55:00;;;;;;;11.03;3.60;;;7.30;1.00;;;;;;5037371;28;20471;-82
2023/02/01 09:57:40;;;;;;;12.47;3.53;;;7.30;1.00;;;;;;5034247;28;21073;-81
2023/02/01 10:00:18;;;;;;;17.00;4.80;;;7.30;1.00;;;;;;5043184;28;20451;-81
2023/02/01 10:02:44;;;;;;;15.23;4.03;;;7.40;1.00;;;;;;5050516;28;20537;-81
2023/02/01 10:05:17;;;;;;;15.73;4.90;;;7.50;99.90;;;;;;5043503;28;20488;-82
2023/02/01 10:07:55;;;;;;;12.97;3.77;;;7.50;99.90;;;;;;5041696;28;20543;-82
2023/02/01 10:10:28;;;;;;;17.43;4.20;;;7.60;99.90;;;;;;5040363;28;20532;-82
2023/02/01 10:13:24;;;;;;;9.17;3.40;;;7.50;99.90;;;;;;5042136;28;20467;-82
2023/02/01 10:16:02;;;;;;;51.83;22.80;;;7.50;99.90;;;;;;5039279;28;20524;-81
2023/02/01 10:18:45;;;;;;;51.63;19.20;;;7.60;99.90;;;;;;5037652;28;20488;-81
2023/02/01 10:21:20;;;;;;;25.77;6.33;;;7.70;99.90;;;;;;5036601;28;20451;-80
2023/02/01 10:24:12;;;;;;;13.43;3.70;;;7.80;99.90;;;;;;5038722;28;20487;-83
2023/02/01 10:26:43;;;;;;;12.07;4.00;;;7.90;99.90;;;;;;5037943;28;20453;-81
2023/02/01 10:29:17;;;;;;;9.23;3.10;;;7.90;99.90;;;;;;5036966;28;20506;-80
2023/02/01 10:34:27;;;;;;;19.63;4.47;;;7.80;99.90;;;;;;5017340;28;20472;-80
2023/02/01 10:36:58;;;;;;;12.00;3.93;;;7.80;99.90;;;;;;5019415;28;20963;-82
2023/02/01 10:39:25;;;;;;;12.67;3.73;;;7.70;99.90;;;;;;5018794;28;20477;-78
2023/02/01 10:41:52;;;;;;;14.20;3.10;;;7.70;99.90;;;;;;5019784;28;20900;-79
2023/02/01 10:44:23;;;;;;;15.10;4.50;;;7.60;99.90;;;;;;5039526;28;20496;-81
2023/02/01 10:46:50;;;;;;;16.50;4.43;;;7.60;99.90;;;;;;5040327;28;20443;-81
2023/02/01 10:49:23;;;;;;;20.10;4.37;;;7.60;99.90;;;;;;5040478;28;20452;-79
2023/02/01 10:51:56;;;;;;;11.90;3.27;;;7.50;99.90;;;;;;5037887;28;20460;-80
2023/02/01 10:54:32;;;;;;;19.67;4.47;;;7.40;99.90;;;;;;5043215;28;20509;-79
2023/02/01 10:56:59;;;;;;;8.87;3.37;;;7.40;99.90;;;;;;5036967;28;20472;-84
2023/02/01 10:59:28;;;;;;;9.20;3.80;;;7.50;99.90;;;;;;5034944;28;20459;-81
2023/02/01 11:02:04;;;;;;;8.00;3.50;;;7.50;99.90;;;;;;5029044;28;20612;-81
2023/02/01 11:04:35;;;;;;;12.43;3.30;;;7.40;99.90;;;;;;5029295;28;20479;-83
2023/02/01 11:07:16;;;;;;;14.57;3.90;;;7.40;99.90;;;;;;5030087;28;22096;-82
2023/02/01 11:09:51;;;;;;;10.77;3.97;;;7.40;99.90;;;;;;5034886;28;20481;-81
2023/02/01 11:12:28;;;;;;;13.50;4.27;;;7.40;99.90;;;;;;5023322;28;20569;-79
2023/02/01 11:15:01;;;;;;;12.93;3.90;;;7.50;99.90;;;;;;5027290;28;20447;-79
2023/02/01 11:17:33;;;;;;;18.73;4.27;;;7.50;99.90;;;;;;5038293;28;20440;-80
2023/02/01 11:20:07;;;;;;;15.20;5.27;;;7.60;99.90;;;;;;5032202;28;20441;-82
2023/02/01 11:22:34;;;;;;;10.80;3.43;;;7.60;99.90;;;;;;5033430;28;20540;-83
2023/02/01 11:25:08;;;;;;;18.30;5.30;;;7.70;99.90;;;;;;5034194;28;20521;-81
2023/02/01 11:27:35;;;;;;;15.80;4.03;;;7.80;99.90;;;;;;5014100;28;20451;-78
2023/02/01 11:30:04;;;;;;;12.13;4.33;;;7.80;99.90;;;;;;5033961;28;20475;-81
2023/02/01 11:32:31;;;;;;;15.40;3.70;;;7.70;99.90;;;;;;5030621;28;20503;-79
2023/02/01 11:35:03;;;;;;;13.90;3.93;;;7.60;99.90;;;;;;5025121;28;20524;-82
2023/02/01 11:37:34;;;;;;;12.83;4.37;;;7.60;99.90;;;;;;5022744;28;20559;-80
2023/02/01 11:40:03;;;;;;;10.93;4.63;;;7.70;99.90;;;;;;5031207;28;20452;-82
2023/02/01 11:42:31;;;;;;;23.17;4.07;;;7.70;99.90;;;;;;5027795;28;20485;-83
2023/02/01 11:45:20;;;;;;;15.07;3.83;;;7.80;99.90;;;;;;5038784;28;20571;-81
2023/02/01 11:47:52;;;;;;;15.57;4.07;;;7.80;99.90;;;;;;5041543;28;20471;-82
2023/02/01 11:50:29;;;;;;;13.20;3.50;;;7.90;99.90;;;;;;5030325;28;20459;-80
2023/02/01 11:53:20;;;;;;;12.57;3.77;;;7.80;99.90;;;;;;5029448;28;20528;-81
2023/02/01 11:56:00;;;;;;;9.43;3.20;;;7.80;99.90;;;;;;5024735;28;20544;-82
2023/02/01 11:58:47;;;;;;;12.50;4.60;;;7.70;99.90;;;;;;5036690;28;20471;-79
2023/02/01 12:01:31;;;;;;;13.00;4.00;;;7.50;1.00;;;;;;5024680;28;20457;-81
2023/02/01 12:04:28;;;;;;;12.00;3.90;;;7.30;1.00;;;;;;5026281;28;20497;-82
2023/02/01 12:06:58;;;;;;;20.07;5.10;;;7.00;15.30;;;;;;5022142;28;20463;-82
2023/02/01 12:09:38;;;;;;;17.60;4.63;;;6.80;98.80;;;;;;5030720;28;20506;-79
2023/02/01 12:12:18;;;;;;;14.40;5.20;;;6.70;99.90;;;;;;5036826;28;20524;-79
2023/02/01 12:15:04;;;;;;;21.57;5.07;;;6.60;99.90;;;;;;5035589;28;20456;-82
2023/02/01 12:18:02;;;;;;;12.33;3.80;;;6.50;99.90;;;;;;5025281;28;20467;-80
2023/02/01 12:20:51;;;;;;;12.40;4.27;;;6.50;99.90;;;;;;5033832;28;20468;-78
2023/02/01 12:23:32;;;;;;;21.20;4.40;;;6.50;99.90;;;;;;5020762;28;20838;-82
2023/02/01 12:26:14;;;;;;;11.33;3.60;;;6.50;99.90;;;;;;5020239;28;20588;-80
2023/02/01 12:29:07;;;;;;;17.77;4.90;;;6.40;99.90;;;;;;5028069;28;20494;-80
2023/02/01 12:31:56;;;;;;;23.33;4.90;;;6.40;99.90;;;;;;4999668;28;20537;-81
2023/02/01 12:34:41;;;;;;;14.57;3.90;;;6.40;99.90;;;;;;5026065;28;20466;-81
2023/02/01 12:37:18;;;;;;;15.47;4.23;;;6.40;99.90;;;;;;5031784;28;20863;-81
2023/02/01 12:39:52;;;;;;;12.90;3.63;;;6.40;99.90;;;;;;5020862;28;20858;-82
2023/02/01 12:42:25;;;;;;;19.97;5.93;;;6.40;99.90;;;;;;5028416;28;20930;-81
2023/02/01 12:44:56;;;;;;;18.50;4.20;;;6.50;99.90;;;;;;5031093;28;20483;-83
2023/02/01 12:47:29;;;;;;;13.10;3.80;;;6.50;99.90;;;;;;5028808;28;20470;-82
2023/02/01 12:50:02;;;;;;;13.00;6.23;;;6.60;99.90;;;;;;5037195;28;20850;-81
2023/02/01 12:52:36;;;;;;;18.07;5.10;;;6.70;94.50;;;;;;5036126;28;20493;-81
2023/02/01 12:55:10;;;;;;;15.43;4.60;;;6.80;91.00;;;;;;5030601;28;20574;-82
2023/02/01 12:57:41;;;;;;;9.60;4.10;;;6.90;45.60;;;;;;5022341;28;20475;-83
2023/02/01 13:00:21;;;;;;;15.20;4.30;;;7.00;1.00;;;;;;5037883;28;20459;-82
2023/02/01 13:02:55;;;;;;;14.53;3.87;;;7.00;1.00;;;;;;5036817;28;20527;-84
2023/02/01 13:05:26;;;;;;;12.67;4.60;;;7.10;1.00;;;;;;5036821;28;20574;-83
2023/02/01 13:07:58;;;;;;;15.40;4.00;;;7.10;1.00;;;;;;5034165;28;20473;-84
2023/02/01 13:10:33;;;;;;;10.20;4.50;;;7.10;1.00;;;;;;5028103;28;20548;-82
2023/02/01 13:13:06;;;;;;;15.20;3.70;;;7.10;1.00;;;;;;5025901;28;20480;-83
2023/02/01 13:15:39;;;;;;;14.40;4.37;;;7.00;1.00;;;;;;5036704;28;20460;-84
2023/02/01 13:18:12;;;;;;;14.83;3.87;;;7.00;1.40;;;;;;5037513;28;20462;-83
2023/02/01 13:20:48;;;;;;;14.70;3.80;;;7.10;1.00;;;;;;5033880;28;20462;-83
2023/02/01 13:23:26;;;;;;;11.40;3.70;;;7.10;1.00;;;;;;5027549;28;20487;-83
2023/02/01 13:25:55;;;;;;;10.67;2.87;;;7.10;1.00;;;;;;5029209;28;20479;-84
2023/02/01 13:28:27;;;;;;;8.33;2.73;;;7.10;1.00;;;;;;5020597;28;20440;-83
2023/02/01 13:31:07;;;;;;;9.90;3.23;;;7.20;1.00;;;;;;5026354;28;20468;-83
2023/02/01 13:33:56;;;;;;;12.13;2.60;;;7.20;1.00;;;;;;5024348;28;20475;-84
2023/02/01 13:36:48;;;;;;;10.10;3.67;;;7.30;1.00;;;;;;5025733;28;20505;-82
2023/02/01 13:39:35;;;;;;;10.23;2.93;;;7.40;1.00;;;;;;5030382;28;20460;-83
2023/02/01 13:42:10;;;;;;;18.03;2.87;;;7.40;1.00;;;;;;5032042;28;20643;-84
2023/02/01 13:44:41;;;;;;;7.57;2.53;;;7.40;1.00;;;;;;5026322;28;20511;-84